sensor_id;sensor_type;location;lat;lon;timestamp;P1;durP1;ratioP1;P2;durP2;ratioP2
68315;SDS011;55508;54.368;18.406;2023-04-07T00:00:26;70.50;;;15.13;;
68315;SDS011;55508;54.368;18.406;2023-04-07T00:02:53;43.78;;;14.23;;
68315;SDS011;55508;54.368;18.406;2023-04-07T00:05:21;53.40;;;14.55;;
68315;SDS011;55508;54.368;18.406;2023-04-07T00:07:48;52.67;;;15.60;;
68315;SDS011;55508;54.368;18.406;2023-04-07T00:10:23;72.75;;;17.38;;
68315;SDS011;55508;54.368;18.406;2023-04-07T00:12:50;72.53;;;16.13;;
68315;SDS011;55508;54.368;18.406;2023-04-07T00:15:18;49.10;;;14.18;;
68315;SDS011;55508;54.368;18.406;2023-04-07T00:17:45;61.40;;;16.38;;
68315;SDS011;55508;54.368;18.406;2023-04-07T00:20:12;74.50;;;17.33;;
68315;SDS011;55508;54.368;18.406;2023-04-07T00:22:39;64.20;;;17.35;;
68315;SDS011;55508;54.368;18.406;2023-04-07T00:25:06;108.78;;;21.25;;
68315;SDS011;55508;54.368;18.406;2023-04-07T00:27:33;84.20;;;17.63;;
68315;SDS011;55508;54.368;18.406;2023-04-07T00:30:00;107.35;;;20.65;;
68315;SDS011;55508;54.368;18.406;2023-04-07T00:32:27;131.35;;;16.45;;
68315;SDS011;55508;54.368;18.406;2023-04-07T00:34:54;96.72;;;19.25;;
68315;SDS011;55508;54.368;18.406;2023-04-07T00:37:21;110.35;;;20.55;;
68315;SDS011;55508;54.368;18.406;2023-04-07T00:39:49;76.38;;;18.25;;
68315;SDS011;55508;54.368;18.406;2023-04-07T00:42:17;75.10;;;17.60;;
68315;SDS011;55508;54.368;18.406;2023-04-07T00:44:44;96.68;;;20.15;;
68315;SDS011;55508;54.368;18.406;2023-04-07T00:47:11;68.28;;;16.90;;
68315;SDS011;55508;54.368;18.406;2023-04-07T00:49:38;99.05;;;18.52;;
68315;SDS011;55508;54.368;18.406;2023-04-07T00:52:05;72.78;;;18.70;;
68315;SDS011;55508;54.368;18.406;2023-04-07T00:54:33;84.00;;;19.50;;
68315;SDS011;55508;54.368;18.406;2023-04-07T00:57:00;94.90;;;18.48;;
68315;SDS011;55508;54.368;18.406;2023-04-07T00:59:27;79.03;;;17.30;;
68315;SDS011;55508;54.368;18.406;2023-04-07T01:02:07;96.35;;;20.13;;
68315;SDS011;55508;54.368;18.406;2023-04-07T01:04:43;103.78;;;18.23;;
68315;SDS011;55508;54.368;18.406;2023-04-07T01:07:26;105.05;;;16.15;;
68315;SDS011;55508;54.368;18.406;2023-04-07T01:10:04;68.60;;;16.13;;
68315;SDS011;55508;54.368;18.406;2023-04-07T01:12:53;83.57;;;17.77;;
68315;SDS011;55508;54.368;18.406;2023-04-07T01:15:29;61.92;;;17.63;;
68315;SDS011;55508;54.368;18.406;2023-04-07T01:18:00;70.38;;;16.55;;
68315;SDS011;55508;54.368;18.406;2023-04-07T01:20:34;82.85;;;17.40;;
68315;SDS011;55508;54.368;18.406;2023-04-07T01:23:03;78.13;;;16.90;;
68315;SDS011;55508;54.368;18.406;2023-04-07T01:25:42;71.05;;;14.70;;
68315;SDS011;55508;54.368;18.406;2023-04-07T01:31:34;95.78;;;17.08;;
68315;SDS011;55508;54.368;18.406;2023-04-07T01:34:03;57.55;;;14.95;;
68315;SDS011;55508;54.368;18.406;2023-04-07T01:36:30;64.43;;;15.93;;
68315;SDS011;55508;54.368;18.406;2023-04-07T01:38:59;76.18;;;15.52;;
68315;SDS011;55508;54.368;18.406;2023-04-07T01:41:26;54.85;;;14.40;;
68315;SDS011;55508;54.368;18.406;2023-04-07T01:43:53;82.38;;;16.77;;
68315;SDS011;55508;54.368;18.406;2023-04-07T01:46:22;88.82;;;17.45;;
68315;SDS011;55508;54.368;18.406;2023-04-07T01:48:49;71.25;;;17.88;;
68315;SDS011;55508;54.368;18.406;2023-04-07T01:51:17;84.82;;;17.92;;
68315;SDS011;55508;54.368;18.406;2023-04-07T01:53:46;93.78;;;18.58;;
68315;SDS011;55508;54.368;18.406;2023-04-07T01:56:13;89.57;;;16.75;;
68315;SDS011;55508;54.368;18.406;2023-04-07T01:58:43;149.25;;;19.17;;
68315;SDS011;55508;54.368;18.406;2023-04-07T02:01:14;98.43;;;17.30;;
68315;SDS011;55508;54.368;18.406;2023-04-07T02:03:43;86.10;;;16.38;;
68315;SDS011;55508;54.368;18.406;2023-04-07T02:06:17;82.38;;;17.58;;
68315;SDS011;55508;54.368;18.406;2023-04-07T02:08:49;60.17;;;16.85;;
68315;SDS011;55508;54.368;18.406;2023-04-07T02:11:29;60.17;;;17.83;;
68315;SDS011;55508;54.368;18.406;2023-04-07T02:16:32;73.88;;;16.25;;
68315;SDS011;55508;54.368;18.406;2023-04-07T02:19:00;74.80;;;16.98;;
68315;SDS011;55508;54.368;18.406;2023-04-07T02:21:29;75.90;;;20.30;;
68315;SDS011;55508;54.368;18.406;2023-04-07T02:23:59;80.95;;;18.35;;
68315;SDS011;55508;54.368;18.406;2023-04-07T02:26:26;85.88;;;18.00;;
68315;SDS011;55508;54.368;18.406;2023-04-07T02:28:55;93.95;;;18.83;;
68315;SDS011;55508;54.368;18.406;2023-04-07T02:31:22;96.47;;;20.05;;
68315;SDS011;55508;54.368;18.406;2023-04-07T02:33:49;88.75;;;20.35;;
68315;SDS011;55508;54.368;18.406;2023-04-07T02:36:16;102.55;;;19.02;;
68315;SDS011;55508;54.368;18.406;2023-04-07T02:38:42;86.13;;;18.10;;
68315;SDS011;55508;54.368;18.406;2023-04-07T02:41:09;75.00;;;19.25;;
68315;SDS011;55508;54.368;18.406;2023-04-07T02:43:36;106.03;;;20.30;;
68315;SDS011;55508;54.368;18.406;2023-04-07T02:46:03;92.45;;;18.40;;
68315;SDS011;55508;54.368;18.406;2023-04-07T02:48:30;119.75;;;20.50;;
68315;SDS011;55508;54.368;18.406;2023-04-07T02:50:58;100.38;;;19.90;;
68315;SDS011;55508;54.368;18.406;2023-04-07T02:53:25;120.18;;;21.35;;
68315;SDS011;55508;54.368;18.406;2023-04-07T02:55:51;112.20;;;21.25;;
68315;SDS011;55508;54.368;18.406;2023-04-07T02:58:18;119.50;;;19.98;;
68315;SDS011;55508;54.368;18.406;2023-04-07T03:00:46;134.48;;;18.13;;
68315;SDS011;55508;54.368;18.406;2023-04-07T03:03:21;129.80;;;19.10;;
68315;SDS011;55508;54.368;18.406;2023-04-07T03:08:32;159.55;;;20.98;;
68315;SDS011;55508;54.368;18.406;2023-04-07T03:10:59;127.70;;;18.50;;
68315;SDS011;55508;54.368;18.406;2023-04-07T03:13:28;182.48;;;20.67;;
68315;SDS011;55508;54.368;18.406;2023-04-07T03:15:56;204.82;;;24.52;;
68315;SDS011;55508;54.368;18.406;2023-04-07T03:18:27;126.13;;;22.08;;
68315;SDS011;55508;54.368;18.406;2023-04-07T03:20:59;77.18;;;20.10;;
68315;SDS011;55508;54.368;18.406;2023-04-07T03:23:26;53.80;;;18.63;;
68315;SDS011;55508;54.368;18.406;2023-04-07T03:25:57;68.05;;;19.20;;
68315;SDS011;55508;54.368;18.406;2023-04-07T03:28:28;65.90;;;19.83;;
68315;SDS011;55508;54.368;18.406;2023-04-07T03:30:55;75.30;;;18.80;;
68315;SDS011;55508;54.368;18.406;2023-04-07T03:33:23;93.53;;;22.60;;
68315;SDS011;55508;54.368;18.406;2023-04-07T03:35:52;88.88;;;21.95;;
68315;SDS011;55508;54.368;18.406;2023-04-07T03:38:20;98.80;;;22.42;;
68315;SDS011;55508;54.368;18.406;2023-04-07T03:40:52;105.10;;;19.88;;
68315;SDS011;55508;54.368;18.406;2023-04-07T03:43:19;148.07;;;24.50;;
68315;SDS011;55508;54.368;18.406;2023-04-07T03:45:46;160.60;;;24.45;;
68315;SDS011;55508;54.368;18.406;2023-04-07T03:48:15;120.80;;;21.00;;
68315;SDS011;55508;54.368;18.406;2023-04-07T03:50:54;179.93;;;26.90;;
68315;SDS011;55508;54.368;18.406;2023-04-07T03:53:21;205.23;;;26.95;;
68315;SDS011;55508;54.368;18.406;2023-04-07T03:55:49;250.48;;;28.45;;
68315;SDS011;55508;54.368;18.406;2023-04-07T03:58:37;250.82;;;29.25;;
68315;SDS011;55508;54.368;18.406;2023-04-07T04:01:04;258.98;;;29.02;;
68315;SDS011;55508;54.368;18.406;2023-04-07T04:03:31;164.00;;;23.58;;
68315;SDS011;55508;54.368;18.406;2023-04-07T04:06:16;159.13;;;25.70;;
68315;SDS011;55508;54.368;18.406;2023-04-07T04:08:43;196.98;;;24.95;;
68315;SDS011;55508;54.368;18.406;2023-04-07T04:11:09;145.48;;;25.40;;
68315;SDS011;55508;54.368;18.406;2023-04-07T04:13:44;128.55;;;22.95;;
68315;SDS011;55508;54.368;18.406;2023-04-07T04:16:11;106.28;;;20.15;;
68315;SDS011;55508;54.368;18.406;2023-04-07T04:18:42;119.47;;;19.23;;
68315;SDS011;55508;54.368;18.406;2023-04-07T04:21:11;159.20;;;22.98;;
68315;SDS011;55508;54.368;18.406;2023-04-07T04:23:41;136.85;;;23.90;;
68315;SDS011;55508;54.368;18.406;2023-04-07T04:26:08;135.07;;;23.10;;
68315;SDS011;55508;54.368;18.406;2023-04-07T04:28:37;135.07;;;22.85;;
68315;SDS011;55508;54.368;18.406;2023-04-07T04:31:06;93.45;;;18.88;;
68315;SDS011;55508;54.368;18.406;2023-04-07T04:33:38;144.30;;;22.55;;
68315;SDS011;55508;54.368;18.406;2023-04-07T04:36:05;143.65;;;20.67;;
68315;SDS011;55508;54.368;18.406;2023-04-07T04:38:33;151.63;;;22.88;;
68315;SDS011;55508;54.368;18.406;2023-04-07T04:41:05;130.70;;;21.35;;
68315;SDS011;55508;54.368;18.406;2023-04-07T04:43:33;143.38;;;21.90;;
68315;SDS011;55508;54.368;18.406;2023-04-07T04:46:02;162.20;;;24.88;;
68315;SDS011;55508;54.368;18.406;2023-04-07T04:51:03;176.45;;;21.13;;
68315;SDS011;55508;54.368;18.406;2023-04-07T04:53:30;161.20;;;22.70;;
68315;SDS011;55508;54.368;18.406;2023-04-07T04:56:00;146.88;;;18.65;;
68315;SDS011;55508;54.368;18.406;2023-04-07T04:58:36;162.65;;;21.80;;
68315;SDS011;55508;54.368;18.406;2023-04-07T05:01:06;147.88;;;22.10;;
68315;SDS011;55508;54.368;18.406;2023-04-07T05:03:39;90.20;;;18.10;;
68315;SDS011;55508;54.368;18.406;2023-04-07T05:06:14;102.25;;;18.35;;
68315;SDS011;55508;54.368;18.406;2023-04-07T05:08:43;123.25;;;19.90;;
68315;SDS011;55508;54.368;18.406;2023-04-07T05:11:12;117.18;;;19.88;;
68315;SDS011;55508;54.368;18.406;2023-04-07T05:13:41;69.07;;;16.48;;
68315;SDS011;55508;54.368;18.406;2023-04-07T05:16:07;88.32;;;18.88;;
68315;SDS011;55508;54.368;18.406;2023-04-07T05:18:35;93.03;;;18.23;;
68315;SDS011;55508;54.368;18.406;2023-04-07T05:21:03;85.10;;;17.85;;
68315;SDS011;55508;54.368;18.406;2023-04-07T05:23:33;69.60;;;15.50;;
68315;SDS011;55508;54.368;18.406;2023-04-07T05:26:00;73.40;;;18.27;;
68315;SDS011;55508;54.368;18.406;2023-04-07T05:28:28;77.05;;;17.02;;
68315;SDS011;55508;54.368;18.406;2023-04-07T05:30:59;76.25;;;16.85;;
68315;SDS011;55508;54.368;18.406;2023-04-07T05:33:30;68.27;;;17.20;;
68315;SDS011;55508;54.368;18.406;2023-04-07T05:35:57;77.03;;;17.08;;
68315;SDS011;55508;54.368;18.406;2023-04-07T05:38:24;65.20;;;17.25;;
68315;SDS011;55508;54.368;18.406;2023-04-07T05:40:56;67.65;;;17.58;;
68315;SDS011;55508;54.368;18.406;2023-04-07T05:43:27;82.80;;;18.38;;
68315;SDS011;55508;54.368;18.406;2023-04-07T05:45:54;102.25;;;19.05;;
68315;SDS011;55508;54.368;18.406;2023-04-07T05:48:22;85.35;;;18.52;;
68315;SDS011;55508;54.368;18.406;2023-04-07T05:50:49;82.63;;;17.55;;
68315;SDS011;55508;54.368;18.406;2023-04-07T05:53:17;97.38;;;18.13;;
68315;SDS011;55508;54.368;18.406;2023-04-07T05:55:45;73.75;;;16.42;;
68315;SDS011;55508;54.368;18.406;2023-04-07T05:58:21;111.60;;;18.30;;
68315;SDS011;55508;54.368;18.406;2023-04-07T06:00:51;122.93;;;19.40;;
68315;SDS011;55508;54.368;18.406;2023-04-07T06:03:18;115.80;;;17.55;;
68315;SDS011;55508;54.368;18.406;2023-04-07T06:06:05;123.40;;;19.42;;
68315;SDS011;55508;54.368;18.406;2023-04-07T06:08:33;146.90;;;19.63;;
68315;SDS011;55508;54.368;18.406;2023-04-07T06:11:00;124.45;;;19.75;;
68315;SDS011;55508;54.368;18.406;2023-04-07T06:13:28;141.45;;;20.73;;
68315;SDS011;55508;54.368;18.406;2023-04-07T06:15:55;178.15;;;22.48;;
68315;SDS011;55508;54.368;18.406;2023-04-07T06:18:22;115.18;;;20.85;;
68315;SDS011;55508;54.368;18.406;2023-04-07T06:20:49;126.93;;;20.02;;
68315;SDS011;55508;54.368;18.406;2023-04-07T06:23:17;112.78;;;21.02;;
68315;SDS011;55508;54.368;18.406;2023-04-07T06:25:43;139.05;;;23.00;;
68315;SDS011;55508;54.368;18.406;2023-04-07T06:28:11;120.80;;;20.38;;
68315;SDS011;55508;54.368;18.406;2023-04-07T06:30:37;97.03;;;18.75;;
68315;SDS011;55508;54.368;18.406;2023-04-07T06:33:10;108.90;;;17.95;;
68315;SDS011;55508;54.368;18.406;2023-04-07T06:35:39;104.43;;;18.85;;
68315;SDS011;55508;54.368;18.406;2023-04-07T06:38:06;125.80;;;21.58;;
68315;SDS011;55508;54.368;18.406;2023-04-07T06:40:33;108.28;;;17.45;;
68315;SDS011;55508;54.368;18.406;2023-04-07T06:43:00;122.65;;;18.25;;
68315;SDS011;55508;54.368;18.406;2023-04-07T06:45:38;137.10;;;19.05;;
68315;SDS011;55508;54.368;18.406;2023-04-07T06:48:05;123.93;;;19.58;;
68315;SDS011;55508;54.368;18.406;2023-04-07T06:50:32;129.82;;;20.02;;
68315;SDS011;55508;54.368;18.406;2023-04-07T06:52:59;162.10;;;21.63;;
68315;SDS011;55508;54.368;18.406;2023-04-07T06:55:26;85.97;;;15.93;;
68315;SDS011;55508;54.368;18.406;2023-04-07T06:57:53;137.13;;;18.20;;
68315;SDS011;55508;54.368;18.406;2023-04-07T07:00:21;142.35;;;19.10;;
68315;SDS011;55508;54.368;18.406;2023-04-07T07:02:48;123.47;;;19.40;;
68315;SDS011;55508;54.368;18.406;2023-04-07T07:05:16;113.50;;;18.30;;
68315;SDS011;55508;54.368;18.406;2023-04-07T07:07:43;106.93;;;15.55;;
68315;SDS011;55508;54.368;18.406;2023-04-07T07:10:10;138.18;;;17.60;;
68315;SDS011;55508;54.368;18.406;2023-04-07T07:12:36;213.90;;;22.50;;
68315;SDS011;55508;54.368;18.406;2023-04-07T07:15:04;153.05;;;16.48;;
68315;SDS011;55508;54.368;18.406;2023-04-07T07:17:31;103.60;;;13.50;;
68315;SDS011;55508;54.368;18.406;2023-04-07T07:19:58;121.13;;;15.10;;
68315;SDS011;55508;54.368;18.406;2023-04-07T07:22:25;132.35;;;18.10;;
68315;SDS011;55508;54.368;18.406;2023-04-07T07:24:52;105.55;;;18.25;;
68315;SDS011;55508;54.368;18.406;2023-04-07T07:27:19;130.23;;;15.75;;
68315;SDS011;55508;54.368;18.406;2023-04-07T07:29:46;173.02;;;17.23;;
68315;SDS011;55508;54.368;18.406;2023-04-07T07:32:13;227.63;;;20.25;;
68315;SDS011;55508;54.368;18.406;2023-04-07T07:34:40;135.65;;;18.00;;
68315;SDS011;55508;54.368;18.406;2023-04-07T07:37:07;108.80;;;18.45;;
68315;SDS011;55508;54.368;18.406;2023-04-07T07:39:34;102.28;;;21.10;;
68315;SDS011;55508;54.368;18.406;2023-04-07T07:42:01;84.68;;;18.10;;
68315;SDS011;55508;54.368;18.406;2023-04-07T07:44:27;68.68;;;15.82;;
68315;SDS011;55508;54.368;18.406;2023-04-07T07:46:57;107.68;;;16.63;;
68315;SDS011;55508;54.368;18.406;2023-04-07T07:49:24;116.63;;;19.02;;
68315;SDS011;55508;54.368;18.406;2023-04-07T07:51:51;176.25;;;19.65;;
68315;SDS011;55508;54.368;18.406;2023-04-07T07:54:18;215.70;;;27.02;;
68315;SDS011;55508;54.368;18.406;2023-04-07T07:56:45;142.77;;;25.75;;
68315;SDS011;55508;54.368;18.406;2023-04-07T07:59:12;121.28;;;22.20;;
68315;SDS011;55508;54.368;18.406;2023-04-07T08:01:41;115.05;;;21.25;;
68315;SDS011;55508;54.368;18.406;2023-04-07T08:04:08;158.55;;;21.30;;
68315;SDS011;55508;54.368;18.406;2023-04-07T08:06:35;108.78;;;22.02;;
68315;SDS011;55508;54.368;18.406;2023-04-07T08:09:03;89.30;;;22.17;;
68315;SDS011;55508;54.368;18.406;2023-04-07T08:11:31;104.57;;;25.45;;
68315;SDS011;55508;54.368;18.406;2023-04-07T08:13:58;97.35;;;24.13;;
68315;SDS011;55508;54.368;18.406;2023-04-07T08:16:25;90.65;;;20.75;;
68315;SDS011;55508;54.368;18.406;2023-04-07T08:18:52;88.57;;;20.98;;
68315;SDS011;55508;54.368;18.406;2023-04-07T08:21:19;103.13;;;22.80;;
68315;SDS011;55508;54.368;18.406;2023-04-07T08:23:46;111.70;;;25.92;;
68315;SDS011;55508;54.368;18.406;2023-04-07T08:26:14;125.38;;;23.92;;
68315;SDS011;55508;54.368;18.406;2023-04-07T08:28:41;120.15;;;25.23;;
68315;SDS011;55508;54.368;18.406;2023-04-07T08:31:08;91.97;;;21.33;;
68315;SDS011;55508;54.368;18.406;2023-04-07T08:33:34;117.50;;;22.75;;
68315;SDS011;55508;54.368;18.406;2023-04-07T08:36:01;91.18;;;22.77;;
68315;SDS011;55508;54.368;18.406;2023-04-07T08:38:29;88.70;;;21.77;;
68315;SDS011;55508;54.368;18.406;2023-04-07T08:41:01;74.03;;;22.55;;
68315;SDS011;55508;54.368;18.406;2023-04-07T08:43:30;85.90;;;20.55;;
68315;SDS011;55508;54.368;18.406;2023-04-07T08:45:57;62.63;;;19.65;;
68315;SDS011;55508;54.368;18.406;2023-04-07T08:48:25;105.88;;;17.85;;
68315;SDS011;55508;54.368;18.406;2023-04-07T08:50:54;64.63;;;15.88;;
68315;SDS011;55508;54.368;18.406;2023-04-07T08:53:26;60.30;;;19.45;;
68315;SDS011;55508;54.368;18.406;2023-04-07T08:55:55;61.33;;;18.70;;
68315;SDS011;55508;54.368;18.406;2023-04-07T08:58:22;49.55;;;16.75;;
68315;SDS011;55508;54.368;18.406;2023-04-07T09:00:49;55.58;;;20.88;;
68315;SDS011;55508;54.368;18.406;2023-04-07T09:03:17;53.53;;;20.95;;
68315;SDS011;55508;54.368;18.406;2023-04-07T09:05:45;46.75;;;20.20;;
68315;SDS011;55508;54.368;18.406;2023-04-07T09:08:12;43.05;;;19.15;;
68315;SDS011;55508;54.368;18.406;2023-04-07T09:10:39;51.17;;;20.02;;
68315;SDS011;55508;54.368;18.406;2023-04-07T09:13:06;55.28;;;22.33;;
68315;SDS011;55508;54.368;18.406;2023-04-07T09:15:33;53.88;;;23.13;;
68315;SDS011;55508;54.368;18.406;2023-04-07T09:18:03;52.35;;;20.13;;
68315;SDS011;55508;54.368;18.406;2023-04-07T09:20:52;50.58;;;20.33;;
68315;SDS011;55508;54.368;18.406;2023-04-07T09:23:31;44.58;;;20.13;;
68315;SDS011;55508;54.368;18.406;2023-04-07T09:28:52;33.63;;;19.83;;
68315;SDS011;55508;54.368;18.406;2023-04-07T09:34:22;35.97;;;20.15;;
68315;SDS011;55508;54.368;18.406;2023-04-07T09:36:54;33.83;;;20.02;;
68315;SDS011;55508;54.368;18.406;2023-04-07T09:39:22;28.08;;;18.13;;
68315;SDS011;55508;54.368;18.406;2023-04-07T09:41:49;28.90;;;18.27;;
68315;SDS011;55508;54.368;18.406;2023-04-07T09:44:20;26.88;;;18.25;;
68315;SDS011;55508;54.368;18.406;2023-04-07T09:46:49;27.10;;;18.77;;
68315;SDS011;55508;54.368;18.406;2023-04-07T09:49:22;26.90;;;19.00;;
68315;SDS011;55508;54.368;18.406;2023-04-07T09:51:56;28.80;;;19.30;;
68315;SDS011;55508;54.368;18.406;2023-04-07T09:54:36;28.45;;;17.98;;
68315;SDS011;55508;54.368;18.406;2023-04-07T09:57:06;30.30;;;19.42;;
68315;SDS011;55508;54.368;18.406;2023-04-07T09:59:35;30.05;;;18.15;;
68315;SDS011;55508;54.368;18.406;2023-04-07T10:02:03;27.58;;;19.25;;
68315;SDS011;55508;54.368;18.406;2023-04-07T10:04:31;26.27;;;16.52;;
68315;SDS011;55508;54.368;18.406;2023-04-07T10:06:58;23.73;;;17.73;;
68315;SDS011;55508;54.368;18.406;2023-04-07T10:09:26;22.90;;;17.08;;
68315;SDS011;55508;54.368;18.406;2023-04-07T10:11:54;25.00;;;17.65;;
68315;SDS011;55508;54.368;18.406;2023-04-07T10:14:26;26.35;;;18.08;;
68315;SDS011;55508;54.368;18.406;2023-04-07T10:16:54;22.75;;;17.85;;
68315;SDS011;55508;54.368;18.406;2023-04-07T10:19:21;24.75;;;17.35;;
68315;SDS011;55508;54.368;18.406;2023-04-07T10:21:50;22.17;;;16.42;;
68315;SDS011;55508;54.368;18.406;2023-04-07T10:27:31;18.13;;;14.90;;
68315;SDS011;55508;54.368;18.406;2023-04-07T10:30:28;20.40;;;15.50;;
68315;SDS011;55508;54.368;18.406;2023-04-07T10:33:01;18.90;;;15.02;;
68315;SDS011;55508;54.368;18.406;2023-04-07T10:36:01;20.60;;;15.63;;
68315;SDS011;55508;54.368;18.406;2023-04-07T10:38:37;20.08;;;15.18;;
68315;SDS011;55508;54.368;18.406;2023-04-07T10:43:59;18.08;;;14.18;;
68315;SDS011;55508;54.368;18.406;2023-04-07T10:46:42;19.75;;;15.07;;
68315;SDS011;55508;54.368;18.406;2023-04-07T10:49:34;15.60;;;13.00;;
68315;SDS011;55508;54.368;18.406;2023-04-07T10:55:27;15.60;;;13.38;;
68315;SDS011;55508;54.368;18.406;2023-04-07T11:03:51;17.52;;;12.90;;
68315;SDS011;55508;54.368;18.406;2023-04-07T11:06:20;16.25;;;12.85;;
68315;SDS011;55508;54.368;18.406;2023-04-07T11:08:47;18.70;;;13.85;;
68315;SDS011;55508;54.368;18.406;2023-04-07T11:11:19;15.70;;;13.25;;
68315;SDS011;55508;54.368;18.406;2023-04-07T11:14:03;16.15;;;12.00;;
68315;SDS011;55508;54.368;18.406;2023-04-07T11:16:34;17.48;;;13.30;;
68315;SDS011;55508;54.368;18.406;2023-04-07T11:19:02;15.85;;;12.30;;
68315;SDS011;55508;54.368;18.406;2023-04-07T11:21:29;17.80;;;13.57;;
68315;SDS011;55508;54.368;18.406;2023-04-07T11:23:56;14.55;;;13.02;;
68315;SDS011;55508;54.368;18.406;2023-04-07T11:26:23;14.30;;;12.40;;
68315;SDS011;55508;54.368;18.406;2023-04-07T11:28:53;15.60;;;12.23;;
68315;SDS011;55508;54.368;18.406;2023-04-07T11:31:24;15.48;;;12.48;;
68315;SDS011;55508;54.368;18.406;2023-04-07T11:33:53;12.43;;;10.63;;
68315;SDS011;55508;54.368;18.406;2023-04-07T11:36:28;13.05;;;11.75;;
68315;SDS011;55508;54.368;18.406;2023-04-07T11:39:05;18.70;;;13.07;;
68315;SDS011;55508;54.368;18.406;2023-04-07T11:41:45;17.65;;;11.40;;
68315;SDS011;55508;54.368;18.406;2023-04-07T11:44:12;15.15;;;11.98;;
68315;SDS011;55508;54.368;18.406;2023-04-07T11:49:29;15.73;;;13.85;;
68315;SDS011;55508;54.368;18.406;2023-04-07T11:52:01;15.20;;;13.60;;
68315;SDS011;55508;54.368;18.406;2023-04-07T11:57:23;14.32;;;12.88;;
68315;SDS011;55508;54.368;18.406;2023-04-07T12:02:39;13.35;;;12.00;;
68315;SDS011;55508;54.368;18.406;2023-04-07T12:05:07;12.38;;;11.07;;
68315;SDS011;55508;54.368;18.406;2023-04-07T12:07:36;13.38;;;11.95;;
68315;SDS011;55508;54.368;18.406;2023-04-07T12:12:51;11.85;;;10.23;;
68315;SDS011;55508;54.368;18.406;2023-04-07T12:15:19;11.50;;;9.25;;
68315;SDS011;55508;54.368;18.406;2023-04-07T12:17:47;11.25;;;9.85;;
68315;SDS011;55508;54.368;18.406;2023-04-07T12:20:14;11.50;;;10.23;;
68315;SDS011;55508;54.368;18.406;2023-04-07T12:22:41;12.65;;;9.75;;
68315;SDS011;55508;54.368;18.406;2023-04-07T12:25:08;10.80;;;9.82;;
68315;SDS011;55508;54.368;18.406;2023-04-07T12:27:36;11.88;;;8.90;;
68315;SDS011;55508;54.368;18.406;2023-04-07T12:30:09;10.48;;;8.77;;
68315;SDS011;55508;54.368;18.406;2023-04-07T12:32:38;12.70;;;8.70;;
68315;SDS011;55508;54.368;18.406;2023-04-07T12:35:05;10.40;;;9.30;;
68315;SDS011;55508;54.368;18.406;2023-04-07T12:37:32;10.70;;;8.32;;
68315;SDS011;55508;54.368;18.406;2023-04-07T12:39:59;10.52;;;9.50;;
68315;SDS011;55508;54.368;18.406;2023-04-07T12:42:26;9.93;;;7.93;;
68315;SDS011;55508;54.368;18.406;2023-04-07T12:44:53;10.60;;;8.43;;
68315;SDS011;55508;54.368;18.406;2023-04-07T12:47:20;9.30;;;8.25;;
68315;SDS011;55508;54.368;18.406;2023-04-07T12:49:48;9.95;;;8.20;;
68315;SDS011;55508;54.368;18.406;2023-04-07T12:52:15;9.23;;;8.32;;
68315;SDS011;55508;54.368;18.406;2023-04-07T12:54:42;13.40;;;8.10;;
68315;SDS011;55508;54.368;18.406;2023-04-07T12:57:11;11.50;;;8.40;;
68315;SDS011;55508;54.368;18.406;2023-04-07T12:59:38;9.65;;;8.43;;
68315;SDS011;55508;54.368;18.406;2023-04-07T13:02:05;9.68;;;7.75;;
68315;SDS011;55508;54.368;18.406;2023-04-07T13:04:32;9.05;;;8.25;;
68315;SDS011;55508;54.368;18.406;2023-04-07T13:07:01;7.78;;;7.00;;
68315;SDS011;55508;54.368;18.406;2023-04-07T13:09:28;8.57;;;7.85;;
68315;SDS011;55508;54.368;18.406;2023-04-07T13:11:55;9.60;;;7.90;;
68315;SDS011;55508;54.368;18.406;2023-04-07T13:14:23;10.05;;;8.02;;
68315;SDS011;55508;54.368;18.406;2023-04-07T13:16:50;8.07;;;7.35;;
68315;SDS011;55508;54.368;18.406;2023-04-07T13:19:17;8.75;;;7.55;;
68315;SDS011;55508;54.368;18.406;2023-04-07T13:21:44;10.65;;;7.25;;
68315;SDS011;55508;54.368;18.406;2023-04-07T13:24:13;8.25;;;6.03;;
68315;SDS011;55508;54.368;18.406;2023-04-07T13:26:41;7.70;;;6.90;;
68315;SDS011;55508;54.368;18.406;2023-04-07T13:29:08;7.38;;;6.68;;
68315;SDS011;55508;54.368;18.406;2023-04-07T13:31:34;7.28;;;6.63;;
68315;SDS011;55508;54.368;18.406;2023-04-07T13:34:01;6.35;;;5.75;;
68315;SDS011;55508;54.368;18.406;2023-04-07T13:36:28;7.32;;;6.70;;
68315;SDS011;55508;54.368;18.406;2023-04-07T13:38:55;9.77;;;7.22;;
68315;SDS011;55508;54.368;18.406;2023-04-07T13:41:23;8.05;;;7.35;;
68315;SDS011;55508;54.368;18.406;2023-04-07T13:43:49;7.88;;;6.50;;
68315;SDS011;55508;54.368;18.406;2023-04-07T13:46:17;8.00;;;7.10;;
68315;SDS011;55508;54.368;18.406;2023-04-07T13:48:47;7.95;;;7.25;;
68315;SDS011;55508;54.368;18.406;2023-04-07T13:51:14;13.40;;;7.60;;
68315;SDS011;55508;54.368;18.406;2023-04-07T13:53:42;9.45;;;7.25;;
68315;SDS011;55508;54.368;18.406;2023-04-07T13:56:09;8.77;;;6.50;;
68315;SDS011;55508;54.368;18.406;2023-04-07T13:58:36;9.27;;;7.63;;
68315;SDS011;55508;54.368;18.406;2023-04-07T14:01:02;7.50;;;6.82;;
68315;SDS011;55508;54.368;18.406;2023-04-07T14:03:29;11.05;;;7.43;;
68315;SDS011;55508;54.368;18.406;2023-04-07T14:05:57;8.23;;;7.53;;
68315;SDS011;55508;54.368;18.406;2023-04-07T14:08:26;14.18;;;7.30;;
68315;SDS011;55508;54.368;18.406;2023-04-07T14:10:53;7.18;;;6.38;;
68315;SDS011;55508;54.368;18.406;2023-04-07T14:13:20;8.95;;;8.15;;
68315;SDS011;55508;54.368;18.406;2023-04-07T14:15:48;9.13;;;6.93;;
68315;SDS011;55508;54.368;18.406;2023-04-07T14:18:15;13.57;;;8.35;;
68315;SDS011;55508;54.368;18.406;2023-04-07T14:20:43;9.80;;;8.80;;
68315;SDS011;55508;54.368;18.406;2023-04-07T14:23:10;8.35;;;7.55;;
68315;SDS011;55508;54.368;18.406;2023-04-07T14:25:39;12.65;;;8.25;;
68315;SDS011;55508;54.368;18.406;2023-04-07T14:28:06;8.50;;;7.65;;
68315;SDS011;55508;54.368;18.406;2023-04-07T14:30:36;10.43;;;7.43;;
68315;SDS011;55508;54.368;18.406;2023-04-07T14:33:05;10.10;;;8.10;;
68315;SDS011;55508;54.368;18.406;2023-04-07T14:35:32;8.85;;;8.02;;
68315;SDS011;55508;54.368;18.406;2023-04-07T14:38:02;9.57;;;8.57;;
68315;SDS011;55508;54.368;18.406;2023-04-07T14:40:29;9.82;;;8.88;;
68315;SDS011;55508;54.368;18.406;2023-04-07T14:42:57;8.80;;;7.90;;
68315;SDS011;55508;54.368;18.406;2023-04-07T14:45:27;8.85;;;7.93;;
68315;SDS011;55508;54.368;18.406;2023-04-07T14:47:54;10.63;;;8.57;;
68315;SDS011;55508;54.368;18.406;2023-04-07T14:50:21;10.30;;;7.43;;
68315;SDS011;55508;54.368;18.406;2023-04-07T14:52:49;8.95;;;8.02;;
68315;SDS011;55508;54.368;18.406;2023-04-07T14:55:16;12.15;;;8.07;;
68315;SDS011;55508;54.368;18.406;2023-04-07T14:57:43;9.43;;;8.40;;
68315;SDS011;55508;54.368;18.406;2023-04-07T15:00:10;9.77;;;8.77;;
68315;SDS011;55508;54.368;18.406;2023-04-07T15:02:38;9.40;;;8.20;;